sensor_id;sensor_type;location;lat;lon;timestamp;pressure;altitude;pressure_sealevel;temperature;humidity
35878;BME280;21982;49.804;24.072;2023-04-01T00:02:00;95602.31;;;10.19;65.77
35878;BME280;21982;49.804;24.072;2023-04-01T00:04:26;95559.59;;;9.92;66.02
35878;BME280;21982;49.804;24.072;2023-04-01T00:06:51;95474.50;;;9.30;66.56
35878;BME280;21982;49.804;24.072;2023-04-01T00:09:17;95630.66;;;10.30;66.89
35878;BME280;21982;49.804;24.072;2023-04-01T00:11:44;95603.66;;;10.09;66.82
35878;BME280;21982;49.804;24.072;2023-04-01T00:14:10;95594.00;;;10.03;67.17
35878;BME280;21982;49.804;24.072;2023-04-01T00:16:36;95618.63;;;10.16;67.33
35878;BME280;21982;49.804;24.072;2023-04-01T00:19:02;95563.09;;;9.74;67.52
35878;BME280;21982;49.804;24.072;2023-04-01T00:21:28;95586.38;;;9.95;67.84
35878;BME280;21982;49.804;24.072;2023-04-01T00:23:53;95592.63;;;10.01;68.02
35878;BME280;21982;49.804;24.072;2023-04-01T00:26:19;95418.34;;;8.93;67.70
35878;BME280;21982;49.804;24.072;2023-04-01T00:28:46;95438.09;;;9.02;67.90
35878;BME280;21982;49.804;24.072;2023-04-01T00:31:12;95547.34;;;9.67;67.96
35878;BME280;21982;49.804;24.072;2023-04-01T00:33:38;95596.63;;;9.62;68.16
35878;BME280;21982;49.804;24.072;2023-04-01T00:36:18;95571.75;;;9.81;68.24
35878;BME280;21982;49.804;24.072;2023-04-01T00:38:44;95592.00;;;9.87;68.87
35878;BME280;21982;49.804;24.072;2023-04-01T00:41:12;95562.19;;;9.68;68.85
35878;BME280;21982;49.804;24.072;2023-04-01T00:43:47;95536.00;;;9.49;69.31
35878;BME280;21982;49.804;24.072;2023-04-01T00:46:15;95588.50;;;9.75;69.36
35878;BME280;21982;49.804;24.072;2023-04-01T00:48:49;95560.44;;;9.62;68.79
35878;BME280;21982;49.804;24.072;2023-04-01T00:51:20;95568.81;;;9.71;69.58
35878;BME280;21982;49.804;24.072;2023-04-01T00:53:49;95547.38;;;9.49;69.53
35878;BME280;21982;49.804;24.072;2023-04-01T00:56:21;95526.88;;;9.33;69.90
35878;BME280;21982;49.804;24.072;2023-04-01T00:59:00;95466.97;;;8.85;70.03
35878;BME280;21982;49.804;24.072;2023-04-01T01:01:28;95372.69;;;8.26;70.05
35878;BME280;21982;49.804;24.072;2023-04-01T01:03:54;95457.94;;;8.74;70.09
35878;BME280;21982;49.804;24.072;2023-04-01T01:14:55;95536.53;;;9.39;70.55
35878;BME280;21982;49.804;24.072;2023-04-01T01:27:59;95548.78;;;9.52;71.84
35878;BME280;21982;49.804;24.072;2023-04-01T01:35:57;95545.38;;;9.63;71.70
35878;BME280;21982;49.804;24.072;2023-04-01T01:38:28;95488.06;;;9.33;72.17
35878;BME280;21982;49.804;24.072;2023-04-01T01:40:55;95508.19;;;9.46;71.98
35878;BME280;21982;49.804;24.072;2023-04-01T01:43:30;95548.03;;;9.63;72.17
35878;BME280;21982;49.804;24.072;2023-04-01T01:46:01;95430.97;;;8.91;72.17
35878;BME280;21982;49.804;24.072;2023-04-01T01:48:31;95536.66;;;9.62;72.74
35878;BME280;21982;49.804;24.072;2023-04-01T01:50:58;95451.00;;;9.10;72.75
35878;BME280;21982;49.804;24.072;2023-04-01T01:53:24;95325.38;;;8.31;72.59
35878;BME280;21982;49.804;24.072;2023-04-01T01:55:50;95381.38;;;8.63;72.77
35878;BME280;21982;49.804;24.072;2023-04-01T02:01:06;95533.91;;;9.69;72.99
35878;BME280;21982;49.804;24.072;2023-04-01T02:03:35;95528.03;;;9.67;73.27
35878;BME280;21982;49.804;24.072;2023-04-01T02:06:04;95524.94;;;9.70;73.24
35878;BME280;21982;49.804;24.072;2023-04-01T02:08:38;95529.75;;;9.73;73.44
35878;BME280;21982;49.804;24.072;2023-04-01T02:11:07;95527.84;;;9.50;72.51
35878;BME280;21982;49.804;24.072;2023-04-01T02:13:47;95534.34;;;9.66;72.91
35878;BME280;21982;49.804;24.072;2023-04-01T02:16:27;95528.84;;;9.67;73.02
35878;BME280;21982;49.804;24.072;2023-04-01T02:18:55;95489.56;;;9.41;73.26
35878;BME280;21982;49.804;24.072;2023-04-01T02:21:24;95531.13;;;9.64;73.78
35878;BME280;21982;49.804;24.072;2023-04-01T02:23:53;95520.66;;;9.57;74.16
35878;BME280;21982;49.804;24.072;2023-04-01T02:26:19;95543.09;;;9.66;73.80
35878;BME280;21982;49.804;24.072;2023-04-01T02:28:46;95354.72;;;8.53;74.47
35878;BME280;21982;49.804;24.072;2023-04-01T02:31:14;95531.94;;;9.64;74.01
35878;BME280;21982;49.804;24.072;2023-04-01T02:33:41;95529.97;;;9.60;74.34
35878;BME280;21982;49.804;24.072;2023-04-01T02:36:12;95393.41;;;8.59;74.38
35878;BME280;21982;49.804;24.072;2023-04-01T02:38:38;95541.00;;;9.57;74.66
35878;BME280;21982;49.804;24.072;2023-04-01T02:41:04;95529.47;;;9.51;75.07
35878;BME280;21982;49.804;24.072;2023-04-01T02:43:31;95529.69;;;9.50;75.05
35878;BME280;21982;49.804;24.072;2023-04-01T02:45:57;95432.28;;;8.82;75.39
35878;BME280;21982;49.804;24.072;2023-04-01T02:48:22;95515.28;;;9.34;75.07
35878;BME280;21982;49.804;24.072;2023-04-01T02:50:48;95547.16;;;9.51;75.58
35878;BME280;21982;49.804;24.072;2023-04-01T02:53:15;95529.13;;;9.48;75.69
35878;BME280;21982;49.804;24.072;2023-04-01T02:55:40;95496.53;;;9.24;76.31
35878;BME280;21982;49.804;24.072;2023-04-01T02:58:06;95539.81;;;9.53;75.58
35878;BME280;21982;49.804;24.072;2023-04-01T03:00:32;95540.03;;;9.51;76.65
35878;BME280;21982;49.804;24.072;2023-04-01T03:02:57;95516.91;;;9.35;76.46
35878;BME280;21982;49.804;24.072;2023-04-01T03:05:24;95535.91;;;9.55;76.56
35878;BME280;21982;49.804;24.072;2023-04-01T03:07:49;95455.91;;;9.06;76.79
35878;BME280;21982;49.804;24.072;2023-04-01T03:10:16;95541.56;;;9.59;76.88
35878;BME280;21982;49.804;24.072;2023-04-01T03:12:41;95428.75;;;8.88;77.13
35878;BME280;21982;49.804;24.072;2023-04-01T03:15:10;95542.06;;;9.67;76.99
35878;BME280;21982;49.804;24.072;2023-04-01T03:17:35;95522.56;;;9.50;76.73
35878;BME280;21982;49.804;24.072;2023-04-01T03:20:01;95489.69;;;9.34;76.64
35878;BME280;21982;49.804;24.072;2023-04-01T03:22:27;95527.56;;;9.58;76.72
35878;BME280;21982;49.804;24.072;2023-04-01T03:24:52;95488.75;;;9.40;77.53
35878;BME280;21982;49.804;24.072;2023-04-01T03:27:18;95505.41;;;9.41;77.28
35878;BME280;21982;49.804;24.072;2023-04-01T03:29:43;95541.72;;;9.75;76.95
35878;BME280;21982;49.804;24.072;2023-04-01T03:32:08;95445.84;;;9.15;77.40
35878;BME280;21982;49.804;24.072;2023-04-01T03:34:34;95466.22;;;9.26;77.30
35878;BME280;21982;49.804;24.072;2023-04-01T03:36:59;95396.06;;;8.89;77.08
35878;BME280;21982;49.804;24.072;2023-04-01T03:39:25;95507.22;;;9.59;77.49
35878;BME280;21982;49.804;24.072;2023-04-01T03:41:50;95535.75;;;9.80;77.00
35878;BME280;21982;49.804;24.072;2023-04-01T03:44:15;95534.50;;;9.83;77.48
35878;BME280;21982;49.804;24.072;2023-04-01T03:46:41;95459.03;;;9.33;77.13
35878;BME280;21982;49.804;24.072;2023-04-01T03:49:08;95539.56;;;9.84;77.25
35878;BME280;21982;49.804;24.072;2023-04-01T03:51:39;95536.13;;;9.84;76.95
35878;BME280;21982;49.804;24.072;2023-04-01T03:54:05;95537.59;;;9.80;77.07
35878;BME280;21982;49.804;24.072;2023-04-01T03:56:31;95510.81;;;9.64;77.33
35878;BME280;21982;49.804;24.072;2023-04-01T03:58:57;95500.41;;;9.51;77.03
35878;BME280;21982;49.804;24.072;2023-04-01T04:01:22;95540.81;;;9.82;77.28
35878;BME280;21982;49.804;24.072;2023-04-01T04:03:48;95478.78;;;9.43;76.83
35878;BME280;21982;49.804;24.072;2023-04-01T04:06:15;95294.91;;;8.17;76.66
35878;BME280;21982;49.804;24.072;2023-04-01T04:08:41;95354.88;;;8.58;77.17
35878;BME280;21982;49.804;24.072;2023-04-01T04:11:07;95343.22;;;8.47;77.14
35878;BME280;21982;49.804;24.072;2023-04-01T04:13:32;95373.25;;;8.64;77.41
35878;BME280;21982;49.804;24.072;2023-04-01T04:15:58;95432.38;;;9.05;77.24
35878;BME280;21982;49.804;24.072;2023-04-01T04:18:23;95294.31;;;8.15;77.06
35878;BME280;21982;49.804;24.072;2023-04-01T04:20:49;95552.06;;;9.77;77.69
35878;BME280;21982;49.804;24.072;2023-04-01T04:23:17;95552.06;;;9.77;77.93
35878;BME280;21982;49.804;24.072;2023-04-01T04:26:00;95433.63;;;9.02;77.15
35878;BME280;21982;49.804;24.072;2023-04-01T04:28:26;95548.47;;;9.71;77.24
35878;BME280;21982;49.804;24.072;2023-04-01T04:30:53;95435.47;;;9.02;77.62
35878;BME280;21982;49.804;24.072;2023-04-01T04:33:21;95419.16;;;8.93;77.63
35878;BME280;21982;49.804;24.072;2023-04-01T04:35:47;95554.03;;;9.70;77.88
35878;BME280;21982;49.804;24.072;2023-04-01T04:38:12;95479.75;;;9.18;78.05
35878;BME280;21982;49.804;24.072;2023-04-01T04:40:40;95483.69;;;9.27;77.48
35878;BME280;21982;49.804;24.072;2023-04-01T04:43:06;95550.56;;;9.69;78.14
35878;BME280;21982;49.804;24.072;2023-04-01T04:45:32;95546.53;;;9.67;77.89
35878;BME280;21982;49.804;24.072;2023-04-01T04:47:58;95549.19;;;9.67;78.30
35878;BME280;21982;49.804;24.072;2023-04-01T04:50:24;95366.75;;;8.49;78.15
35878;BME280;21982;49.804;24.072;2023-04-01T04:52:50;95478.97;;;9.29;77.91
35878;BME280;21982;49.804;24.072;2023-04-01T04:55:16;95466.31;;;9.20;77.88
35878;BME280;21982;49.804;24.072;2023-04-01T04:57:41;95423.03;;;8.91;77.89
35878;BME280;21982;49.804;24.072;2023-04-01T05:00:08;95478.13;;;9.17;78.02
35878;BME280;21982;49.804;24.072;2023-04-01T05:02:35;95557.13;;;9.67;78.50
35878;BME280;21982;49.804;24.072;2023-04-01T05:05:00;95551.03;;;9.66;78.02
35878;BME280;21982;49.804;24.072;2023-04-01T05:07:26;95480.09;;;9.22;78.50
35878;BME280;21982;49.804;24.072;2023-04-01T05:09:52;95481.78;;;9.16;78.33
35878;BME280;21982;49.804;24.072;2023-04-01T05:12:17;95551.59;;;9.68;77.70
35878;BME280;21982;49.804;24.072;2023-04-01T05:14:43;95550.91;;;9.73;78.32
35878;BME280;21982;49.804;24.072;2023-04-01T05:17:10;95548.84;;;9.75;78.43
35878;BME280;21982;49.804;24.072;2023-04-01T05:19:36;95556.56;;;9.77;78.03
35878;BME280;21982;49.804;24.072;2023-04-01T05:22:02;95494.97;;;9.34;77.99
35878;BME280;21982;49.804;24.072;2023-04-01T05:24:28;95548.75;;;9.82;77.76
35878;BME280;21982;49.804;24.072;2023-04-01T05:26:53;95520.06;;;9.55;78.38
35878;BME280;21982;49.804;24.072;2023-04-01T05:29:18;95508.56;;;9.50;78.09
35878;BME280;21982;49.804;24.072;2023-04-01T05:31:44;95474.59;;;9.23;78.04
35878;BME280;21982;49.804;24.072;2023-04-01T05:34:09;95523.66;;;9.61;77.94
35878;BME280;21982;49.804;24.072;2023-04-01T05:36:35;95557.34;;;9.77;77.94
35878;BME280;21982;49.804;24.072;2023-04-01T05:39:01;95532.28;;;9.68;77.99
35878;BME280;21982;49.804;24.072;2023-04-01T05:41:26;95554.84;;;9.82;77.70
35878;BME280;21982;49.804;24.072;2023-04-01T05:43:52;95511.91;;;9.57;78.06
35878;BME280;21982;49.804;24.072;2023-04-01T05:46:17;95418.47;;;8.98;78.08
35878;BME280;21982;49.804;24.072;2023-04-01T05:48:42;95554.03;;;9.82;78.35
35878;BME280;21982;49.804;24.072;2023-04-01T05:51:13;95553.13;;;9.88;78.01
35878;BME280;21982;49.804;24.072;2023-04-01T05:53:39;95464.03;;;9.23;78.14
35878;BME280;21982;49.804;24.072;2023-04-01T05:56:05;95553.72;;;9.90;77.77
35878;BME280;21982;49.804;24.072;2023-04-01T05:58:31;95565.25;;;9.95;78.05
35878;BME280;21982;49.804;24.072;2023-04-01T06:01:01;95550.41;;;10.06;77.88
35878;BME280;21982;49.804;24.072;2023-04-01T06:03:28;95387.72;;;9.03;77.94
35878;BME280;21982;49.804;24.072;2023-04-01T06:05:54;95396.13;;;9.12;77.51
35878;BME280;21982;49.804;24.072;2023-04-01T06:08:20;95555.06;;;10.22;77.64
35878;BME280;21982;49.804;24.072;2023-04-01T06:16:18;95506.94;;;9.90;76.84
35878;BME280;21982;49.804;24.072;2023-04-01T06:21:41;95560.81;;;10.19;76.88
35878;BME280;21982;49.804;24.072;2023-04-01T06:30:33;95571.81;;;10.16;76.60
35878;BME280;21982;49.804;24.072;2023-04-01T06:38:16;95481.69;;;9.53;77.29
35878;BME280;21982;49.804;24.072;2023-04-01T06:44:07;95572.56;;;10.23;76.55
35878;BME280;21982;49.804;24.072;2023-04-01T06:46:58;95543.88;;;10.08;76.60
35878;BME280;21982;49.804;24.072;2023-04-01T06:58:53;95567.38;;;10.40;76.59
35878;BME280;21982;49.804;24.072;2023-04-01T07:01:24;95570.75;;;10.47;76.77
35878;BME280;21982;49.804;24.072;2023-04-01T07:03:57;95573.63;;;10.57;76.38
35878;BME280;21982;49.804;24.072;2023-04-01T07:06:35;95587.56;;;10.64;76.54
35878;BME280;21982;49.804;24.072;2023-04-01T07:09:11;95443.25;;;9.80;76.10
35878;BME280;21982;49.804;24.072;2023-04-01T07:11:40;95578.91;;;10.57;76.15
35878;BME280;21982;49.804;24.072;2023-04-01T07:14:28;95466.94;;;9.87;75.71
35878;BME280;21982;49.804;24.072;2023-04-01T07:19:36;95424.59;;;9.52;75.97
35878;BME280;21982;49.804;24.072;2023-04-01T07:24:54;95596.75;;;10.50;76.27
35878;BME280;21982;49.804;24.072;2023-04-01T07:27:23;95395.38;;;9.23;76.47
35878;BME280;21982;49.804;24.072;2023-04-01T07:29:49;95573.63;;;10.34;76.25
35878;BME280;21982;49.804;24.072;2023-04-01T07:38:09;95591.13;;;10.58;76.05
35878;BME280;21982;49.804;24.072;2023-04-01T07:40:39;95597.56;;;10.62;75.84
35878;BME280;21982;49.804;24.072;2023-04-01T07:46:14;95597.22;;;10.70;75.64
35878;BME280;21982;49.804;24.072;2023-04-01T07:56:45;95479.03;;;10.18;74.60
35878;BME280;21982;49.804;24.072;2023-04-01T07:59:26;95500.91;;;10.48;74.38
35878;BME280;21982;49.804;24.072;2023-04-01T08:21:05;95588.88;;;11.77;72.02
35878;BME280;21982;49.804;24.072;2023-04-01T08:23:46;95386.59;;;10.23;71.84
35878;BME280;21982;49.804;24.072;2023-04-01T08:29:14;95575.09;;;12.08;71.38
35878;BME280;21982;49.804;24.072;2023-04-01T08:32:01;95573.00;;;12.27;70.87
35878;BME280;21982;49.804;24.072;2023-04-01T08:34:38;95487.06;;;12.12;70.62
35878;BME280;21982;49.804;24.072;2023-04-01T08:37:14;95578.81;;;13.13;70.09
35878;BME280;21982;49.804;24.072;2023-04-01T08:39:48;95520.66;;;13.38;68.79
35878;BME280;21982;49.804;24.072;2023-04-01T08:48:31;95569.19;;;15.00;65.08
35878;BME280;21982;49.804;24.072;2023-04-01T08:59:48;95566.69;;;13.93;65.54
35878;BME280;21982;49.804;24.072;2023-04-01T09:08:02;95581.19;;;15.03;63.58
35878;BME280;21982;49.804;24.072;2023-04-01T09:14:17;95592.78;;;15.29;62.64
35878;BME280;21982;49.804;24.072;2023-04-01T09:31:32;95592.38;;;16.50;58.90
35878;BME280;21982;49.804;24.072;2023-04-01T09:37:27;95471.06;;;14.45;59.59
35878;BME280;21982;49.804;24.072;2023-04-01T09:42:42;95477.06;;;14.67;60.16
35878;BME280;21982;49.804;24.072;2023-04-01T10:05:30;95611.03;;;17.31;54.44
35878;BME280;21982;49.804;24.072;2023-04-01T10:22:30;95574.59;;;15.68;56.56
35878;BME280;21982;49.804;24.072;2023-04-01T10:30:38;95616.69;;;16.59;55.50
35878;BME280;21982;49.804;24.072;2023-04-01T10:36:35;95627.84;;;16.30;55.18
35878;BME280;21982;49.804;24.072;2023-04-01T10:51:38;95572.59;;;21.29;48.89
35878;BME280;21982;49.804;24.072;2023-04-01T10:57:10;95625.53;;;23.33;43.70
35878;BME280;21982;49.804;24.072;2023-04-01T11:05:49;95624.91;;;20.91;45.45
35878;BME280;21982;49.804;24.072;2023-04-01T11:08:38;95623.66;;;21.89;45.43
35878;BME280;21982;49.804;24.072;2023-04-01T11:30:16;95563.28;;;20.43;42.81
35878;BME280;21982;49.804;24.072;2023-04-01T11:33:03;95488.63;;;19.84;42.52
35878;BME280;21982;49.804;24.072;2023-04-01T11:38:23;95600.28;;;20.84;41.58
35878;BME280;21982;49.804;24.072;2023-04-01T11:43:51;95577.91;;;19.28;42.84
35878;BME280;21982;49.804;24.072;2023-04-01T11:46:23;95594.88;;;18.60;43.84
35878;BME280;21982;49.804;24.072;2023-04-01T11:49:29;95455.31;;;18.75;44.26
35878;BME280;21982;49.804;24.072;2023-04-01T12:00:58;95584.28;;;22.43;39.35
35878;BME280;21982;49.804;24.072;2023-04-01T12:17:32;95586.03;;;25.49;34.95
35878;BME280;21982;49.804;24.072;2023-04-01T12:23:00;95593.59;;;25.26;34.38
35878;BME280;21982;49.804;24.072;2023-04-01T12:28:16;95515.56;;;23.64;35.18
35878;BME280;21982;49.804;24.072;2023-04-01T12:39:44;95589.25;;;21.72;37.48
35878;BME280;21982;49.804;24.072;2023-04-01T12:42:40;95590.44;;;21.94;37.84
35878;BME280;21982;49.804;24.072;2023-04-01T12:45:32;95591.22;;;23.56;37.01
35878;BME280;21982;49.804;24.072;2023-04-01T12:56:20;95522.09;;;22.70;35.13
35878;BME280;21982;49.804;24.072;2023-04-01T13:10:25;95584.16;;;22.93;38.08
35878;BME280;21982;49.804;24.072;2023-04-01T13:21:33;95603.34;;;22.69;36.02
35878;BME280;21982;49.804;24.072;2023-04-01T13:24:11;95476.91;;;21.73;36.20
35878;BME280;21982;49.804;24.072;2023-04-01T13:27:05;95420.75;;;21.03;36.19
35878;BME280;21982;49.804;24.072;2023-04-01T13:29:51;95576.09;;;21.30;37.27
35878;BME280;21982;49.804;24.072;2023-04-01T13:40:39;95604.53;;;19.19;40.06
35878;BME280;21982;49.804;24.072;2023-04-01T13:43:22;95541.22;;;18.65;40.22
35878;BME280;21982;49.804;24.072;2023-04-01T13:54:37;95510.91;;;17.37;40.86
35878;BME280;21982;49.804;24.072;2023-04-01T13:57:48;95602.63;;;17.68;41.03
35878;BME280;21982;49.804;24.072;2023-04-01T14:01:26;95602.91;;;17.62;41.32
35878;BME280;21982;49.804;24.072;2023-04-01T14:07:05;95600.78;;;17.49;41.09
35878;BME280;21982;49.804;24.072;2023-04-01T14:12:42;95602.34;;;17.70;40.93
35878;BME280;21982;49.804;24.072;2023-04-01T14:15:59;95608.78;;;17.64;40.50
35878;BME280;21982;49.804;24.072;2023-04-01T14:27:53;95616.41;;;17.06;41.53
35878;BME280;21982;49.804;24.072;2023-04-01T14:38:59;95598.25;;;16.52;41.50
35878;BME280;21982;49.804;24.072;2023-04-01T14:44:28;95377.81;;;15.02;41.81
35878;BME280;21982;49.804;24.072;2023-04-01T14:50:08;95614.00;;;16.54;41.42
35878;BME280;21982;49.804;24.072;2023-04-01T14:52:40;95507.91;;;15.78;41.37
35878;BME280;21982;49.804;24.072;2023-04-01T14:55:28;95630.28;;;16.47;41.66
35878;BME280;21982;49.804;24.072;2023-04-01T14:58:14;95292.00;;;14.23;41.95
35878;BME280;21982;49.804;24.072;2023-04-01T15:03:38;95007.44;;;12.19;42.79
35878;BME280;21982;49.804;24.072;2023-04-01T15:12:26;95635.78;;;15.85;43.21
35878;BME280;21982;49.804;24.072;2023-04-01T15:20:41;95639.84;;;15.50;43.99
35878;BME280;21982;49.804;24.072;2023-04-01T15:26:22;95645.88;;;15.30;44.63
35878;BME280;21982;49.804;24.072;2023-04-01T15:31:48;95643.19;;;15.30;45.37
35878;BME280;21982;49.804;24.072;2023-04-01T15:45:45;95539.06;;;13.23;49.03
35878;BME280;21982;49.804;24.072;2023-04-01T15:48:26;95147.97;;;10.21;49.93
35878;BME280;21982;49.804;24.072;2023-04-01T16:01:33;95692.50;;;13.45;53.17
35878;BME280;21982;49.804;24.072;2023-04-01T16:12:20;95692.69;;;13.21;53.97
35878;BME280;21982;49.804;24.072;2023-04-01T16:18:09;95701.47;;;13.05;54.27
35878;BME280;21982;49.804;24.072;2023-04-01T16:23:24;95706.03;;;12.93;55.26
35878;BME280;21982;49.804;24.072;2023-04-01T16:28:55;95703.72;;;12.80;55.70
35878;BME280;21982;49.804;24.072;2023-04-01T16:31:43;95582.78;;;11.93;56.08
35878;BME280;21982;49.804;24.072;2023-04-01T16:34:31;95713.25;;;12.64;56.42
35878;BME280;21982;49.804;24.072;2023-04-01T16:37:09;95302.00;;;9.76;56.75
35878;BME280;21982;49.804;24.072;2023-04-01T16:40:47;95706.16;;;12.53;57.13
35878;BME280;21982;49.804;24.072;2023-04-01T16:47:40;95648.41;;;11.86;58.38
35878;BME280;21982;49.804;24.072;2023-04-01T16:50:21;95381.53;;;9.86;58.36
35878;BME280;21982;49.804;24.072;2023-04-01T16:53:00;95621.25;;;11.16;58.75
35878;BME280;21982;49.804;24.072;2023-04-01T16:55:50;95723.81;;;11.90;58.95
35878;BME280;21982;49.804;24.072;2023-04-01T16:58:43;95652.69;;;11.35;59.21
35878;BME280;21982;49.804;24.072;2023-04-01T17:01:20;95256.94;;;8.78;59.41
35878;BME280;21982;49.804;24.072;2023-04-01T17:03:51;95435.03;;;9.47;59.66
35878;BME280;21982;49.804;24.072;2023-04-01T17:09:23;95737.22;;;11.60;60.38
35878;BME280;21982;49.804;24.072;2023-04-01T17:14:54;95738.97;;;11.55;60.35
35878;BME280;21982;49.804;24.072;2023-04-01T17:30:56;95755.56;;;11.38;61.46
35878;BME280;21982;49.804;24.072;2023-04-01T17:34:03;95534.88;;;9.86;61.16
35878;BME280;21982;49.804;24.072;2023-04-01T18:10:24;95693.41;;;10.53;63.38
35878;BME280;21982;49.804;24.072;2023-04-01T18:21:30;95698.19;;;10.14;64.19
35878;BME280;21982;49.804;24.072;2023-04-01T18:23:56;95812.25;;;10.84;64.81
35878;BME280;21982;49.804;24.072;2023-04-01T18:26:28;95807.78;;;10.85;65.01
35878;BME280;21982;49.804;24.072;2023-04-01T18:28:54;95819.84;;;10.81;65.12
35878;BME280;21982;49.804;24.072;2023-04-01T18:31:24;95768.69;;;10.57;65.14
35878;BME280;21982;49.804;24.072;2023-04-01T18:36:51;95819.97;;;10.86;64.85
35878;BME280;21982;49.804;24.072;2023-04-01T18:39:41;95828.97;;;10.85;64.68
35878;BME280;21982;49.804;24.072;2023-04-01T18:42:28;95822.50;;;10.81;65.02
35878;BME280;21982;49.804;24.072;2023-04-01T18:52:58;95822.41;;;10.87;65.16
35878;BME280;21982;49.804;24.072;2023-04-01T18:55:33;95831.56;;;11.03;65.44
35878;BME280;21982;49.804;24.072;2023-04-01T19:04:23;95830.00;;;11.25;64.44
35878;BME280;21982;49.804;24.072;2023-04-01T19:07:01;95840.13;;;11.28;64.12
35878;BME280;21982;49.804;24.072;2023-04-01T19:09:43;95833.56;;;11.31;64.28
35878;BME280;21982;49.804;24.072;2023-04-01T19:12:31;95836.34;;;11.36;64.10
35878;BME280;21982;49.804;24.072;2023-04-01T19:18:08;95842.00;;;11.39;63.95
35878;BME280;21982;49.804;24.072;2023-04-01T19:20:58;95704.59;;;10.66;63.27
35878;BME280;21982;49.804;24.072;2023-04-01T19:26:34;95770.88;;;11.13;63.10
35878;BME280;21982;49.804;24.072;2023-04-01T19:29:12;95858.50;;;11.65;63.11
35878;BME280;21982;49.804;24.072;2023-04-01T19:31:53;95862.19;;;11.64;63.14
35878;BME280;21982;49.804;24.072;2023-04-01T19:34:45;95670.47;;;10.47;62.84
35878;BME280;21982;49.804;24.072;2023-04-01T19:43:27;95855.38;;;11.68;62.66
35878;BME280;21982;49.804;24.072;2023-04-01T19:54:28;95864.84;;;11.75;62.37
35878;BME280;21982;49.804;24.072;2023-04-01T20:04:48;95742.97;;;10.87;62.31
35878;BME280;21982;49.804;24.072;2023-04-01T20:07:32;95877.19;;;11.70;62.47
35878;BME280;21982;49.804;24.072;2023-04-01T20:10:15;95822.03;;;11.25;62.36
35878;BME280;21982;49.804;24.072;2023-04-01T20:15:39;95850.03;;;11.45;62.17
35878;BME280;21982;49.804;24.072;2023-04-01T20:18:15;95880.97;;;11.62;62.32
35878;BME280;21982;49.804;24.072;2023-04-01T20:21:02;95620.72;;;9.84;62.52
35878;BME280;21982;49.804;24.072;2023-04-01T20:26:13;95889.09;;;11.26;63.03
35878;BME280;21982;49.804;24.072;2023-04-01T20:37:02;95905.88;;;11.20;63.35
35878;BME280;21982;49.804;24.072;2023-04-01T20:42:32;95902.63;;;11.06;64.09
35878;BME280;21982;49.804;24.072;2023-04-01T20:45:24;95902.50;;;11.01;64.24
35878;BME280;21982;49.804;24.072;2023-04-01T20:53:20;95916.03;;;10.93;65.20
35878;BME280;21982;49.804;24.072;2023-04-01T21:07:24;95924.00;;;10.74;66.59
35878;BME280;21982;49.804;24.072;2023-04-01T21:10:25;95913.41;;;10.74;66.56
35878;BME280;21982;49.804;24.072;2023-04-01T21:13:14;95914.47;;;10.73;66.70
35878;BME280;21982;49.804;24.072;2023-04-01T21:16:11;95882.34;;;10.52;66.43
35878;BME280;21982;49.804;24.072;2023-04-01T21:18:49;95888.00;;;10.55;66.94
35878;BME280;21982;49.804;24.072;2023-04-01T21:24:23;95921.00;;;10.71;66.85
35878;BME280;21982;49.804;24.072;2023-04-01T21:27:07;95924.72;;;10.82;67.20
35878;BME280;21982;49.804;24.072;2023-04-01T21:41:23;95910.19;;;10.72;66.73
35878;BME280;21982;49.804;24.072;2023-04-01T21:50:04;95851.69;;;10.44;66.59
35878;BME280;21982;49.804;24.072;2023-04-01T22:00:32;95916.31;;;11.03;66.69
35878;BME280;21982;49.804;24.072;2023-04-01T22:05:46;95904.19;;;10.95;66.45
35878;BME280;21982;49.804;24.072;2023-04-01T22:13:58;95927.28;;;11.06;66.31
35878;BME280;21982;49.804;24.072;2023-04-01T22:16:36;95876.81;;;10.71;66.40
35878;BME280;21982;49.804;24.072;2023-04-01T22:30:48;95884.56;;;10.36;67.05
35878;BME280;21982;49.804;24.072;2023-04-01T22:44:19;95907.94;;;10.21;67.42
35878;BME280;21982;49.804;24.072;2023-04-01T22:49:30;95944.41;;;10.13;67.88
35878;BME280;21982;49.804;24.072;2023-04-01T22:54:39;95941.75;;;10.13;68.24
35878;BME280;21982;49.804;24.072;2023-04-01T22:57:12;95941.38;;;10.09;68.32
35878;BME280;21982;49.804;24.072;2023-04-01T22:59:48;95742.91;;;8.81;68.11
35878;BME280;21982;49.804;24.072;2023-04-01T23:02:34;95839.19;;;9.35;68.37
35878;BME280;21982;49.804;24.072;2023-04-01T23:05:03;95953.34;;;9.93;69.06
35878;BME280;21982;49.804;24.072;2023-04-01T23:07:38;95949.22;;;9.97;69.06
35878;BME280;21982;49.804;24.072;2023-04-01T23:13:10;95924.91;;;9.89;69.13
35878;BME280;21982;49.804;24.072;2023-04-01T23:15:39;95953.78;;;10.08;69.51
35878;BME280;21982;49.804;24.072;2023-04-01T23:18:27;95962.03;;;10.19;68.63
35878;BME280;21982;49.804;24.072;2023-04-01T23:23:46;95958.28;;;10.33;68.95
35878;BME280;21982;49.804;24.072;2023-04-01T23:26:29;95955.91;;;10.43;68.64
35878;BME280;21982;49.804;24.072;2023-04-01T23:28:56;95918.50;;;10.21;69.04
35878;BME280;21982;49.804;24.072;2023-04-01T23:31:25;95961.31;;;10.55;68.70
35878;BME280;21982;49.804;24.072;2023-04-01T23:34:20;95906.31;;;10.20;68.73
35878;BME280;21982;49.804;24.072;2023-04-01T23:36:47;95957.03;;;10.35;68.20
35878;BME280;21982;49.804;24.072;2023-04-01T23:42:19;95958.44;;;10.38;68.16
35878;BME280;21982;49.804;24.072;2023-04-01T23:44:48;95828.97;;;9.38;68.34
35878;BME280;21982;49.804;24.072;2023-04-01T23:47:24;95894.88;;;9.33;68.50
35878;BME280;21982;49.804;24.072;2023-04-01T23:49:57;95967.53;;;9.99;69.19
35878;BME280;21982;49.804;24.072;2023-04-01T23:52:30;95969.03;;;9.88;68.63
35878;BME280;21982;49.804;24.072;2023-04-01T23:55:08;95969.72;;;9.77;69.37
35878;BME280;21982;49.804;24.072;2023-04-01T23:57:37;95887.50;;;9.11;69.59
